createdAt,value
2023-03-20T00:01:57.682Z,17.90
2023-03-20T00:04:26.327Z,18.63
2023-03-20T00:06:53.559Z,21.77
2023-03-20T00:09:20.805Z,20.50
2023-03-20T00:11:49.198Z,18.88
2023-03-20T00:14:17.508Z,20.40
2023-03-20T00:16:47.102Z,18.13
2023-03-20T00:19:20.741Z,18.88
2023-03-20T00:21:48.439Z,19.17
2023-03-20T00:24:16.510Z,20.02
2023-03-20T00:26:44.336Z,17.27
2023-03-20T00:29:16.777Z,18.38
2023-03-20T00:31:44.774Z,13.32
2023-03-20T00:34:16.218Z,14.48
2023-03-20T00:36:43.503Z,11.52
2023-03-20T00:39:10.889Z,12.60
2023-03-20T00:41:57.718Z,11.15
2023-03-20T00:44:27.467Z,11.43
2023-03-20T00:46:58.893Z,12.40
2023-03-20T00:49:30.928Z,12.05
2023-03-20T00:51:58.341Z,9.45
2023-03-20T00:54:25.863Z,11.30
2023-03-20T00:56:56.008Z,9.98
2023-03-20T00:59:25.518Z,14.10
2023-03-20T01:01:52.729Z,11.02
2023-03-20T01:04:20.715Z,8.52
2023-03-20T01:06:47.891Z,9.07
2023-03-20T01:09:15.018Z,8.63
2023-03-20T01:11:42.184Z,7.45
2023-03-20T01:14:14.406Z,8.93
2023-03-20T01:16:41.616Z,8.07
2023-03-20T01:19:11.835Z,9.60
2023-03-20T01:21:38.955Z,9.82
2023-03-20T01:24:06.376Z,8.20
2023-03-20T01:26:33.501Z,10.18
2023-03-20T01:29:00.918Z,9.73
2023-03-20T01:31:28.103Z,9.50
2023-03-20T01:33:55.305Z,9.52
2023-03-20T01:36:23.420Z,10.65
2023-03-20T01:38:58.766Z,10.60
2023-03-20T01:41:27.545Z,10.23
2023-03-20T01:43:54.692Z,8.13
2023-03-20T01:46:26.586Z,10.77
2023-03-20T01:48:53.724Z,9.68
2023-03-20T01:51:22.257Z,9.27
2023-03-20T01:53:52.696Z,8.10
2023-03-20T01:56:20.728Z,10.68
2023-03-20T01:58:50.359Z,12.10
2023-03-20T02:01:18.460Z,13.00
2023-03-20T02:03:48.688Z,14.90
2023-03-20T02:06:16.269Z,12.98
2023-03-20T02:08:47.365Z,14.07
2023-03-20T02:11:16.473Z,12.63
2023-03-20T02:13:43.837Z,15.40
2023-03-20T02:16:12.718Z,14.55
2023-03-20T02:18:41.039Z,15.80
2023-03-20T02:21:11.303Z,16.30
2023-03-20T02:23:57.190Z,16.17
2023-03-20T02:26:32.649Z,15.63
2023-03-20T02:29:05.803Z,15.95
2023-03-20T02:32:00.323Z,15.20
2023-03-20T02:34:39.845Z,15.15
2023-03-20T02:37:25.749Z,15.98
2023-03-20T02:40:02.749Z,17.38
2023-03-20T02:42:34.888Z,19.08
2023-03-20T02:45:16.824Z,18.77
2023-03-20T02:47:46.972Z,20.48
2023-03-20T02:50:26.541Z,18.67
2023-03-20T02:52:58.786Z,17.80
2023-03-20T02:55:41.659Z,16.42
2023-03-20T02:58:28.373Z,19.45
2023-03-20T03:01:03.559Z,17.42
2023-03-20T03:03:36.026Z,20.73
2023-03-20T03:06:06.997Z,20.85
2023-03-20T03:08:37.386Z,20.73
2023-03-20T03:11:09.169Z,21.65
2023-03-20T03:13:56.314Z,22.02
2023-03-20T03:16:26.702Z,23.83
2023-03-20T03:18:59.421Z,22.13
2023-03-20T03:21:28.319Z,18.75
2023-03-20T03:23:56.298Z,21.35
2023-03-20T03:26:26.272Z,23.13
2023-03-20T03:28:56.768Z,25.10
2023-03-20T03:31:24.308Z,24.08
2023-03-20T03:33:54.156Z,25.60
2023-03-20T03:36:33.446Z,21.23
2023-03-20T03:39:03.642Z,22.95
2023-03-20T03:41:46.620Z,21.08
2023-03-20T03:44:33.972Z,21.55
2023-03-20T03:47:04.292Z,19.58
2023-03-20T03:49:33.935Z,22.65
2023-03-20T03:52:03.316Z,20.25
2023-03-20T03:54:32.885Z,25.75
2023-03-20T03:57:01.305Z,25.08
2023-03-20T03:59:35.420Z,24.73
2023-03-20T04:02:03.728Z,26.00
2023-03-20T04:04:32.123Z,21.00
2023-03-20T04:07:02.222Z,20.92
2023-03-20T04:09:29.549Z,19.40
2023-03-20T04:11:56.794Z,21.10
2023-03-20T04:14:24.050Z,24.13
2023-03-20T04:16:51.211Z,19.83
2023-03-20T04:19:18.362Z,21.60
2023-03-20T04:21:45.782Z,21.67
2023-03-20T04:24:12.942Z,22.08
2023-03-20T04:26:40.488Z,21.65
2023-03-20T04:29:07.675Z,21.30
2023-03-20T04:31:34.837Z,24.67
2023-03-20T04:34:01.985Z,26.60
2023-03-20T04:36:29.264Z,27.27
2023-03-20T04:38:57.673Z,26.17
2023-03-20T04:41:24.886Z,23.10
2023-03-20T04:43:51.969Z,22.02
2023-03-20T04:46:19.192Z,24.42
2023-03-20T04:48:46.312Z,24.15
2023-03-20T04:51:13.496Z,22.20
2023-03-20T04:53:40.675Z,23.05
2023-03-20T04:56:08.132Z,21.88
2023-03-20T04:58:36.449Z,23.95
2023-03-20T05:01:03.683Z,22.50
2023-03-20T05:03:30.782Z,26.38
2023-03-20T05:05:57.936Z,25.30
2023-03-20T05:08:25.773Z,23.45
2023-03-20T05:10:52.956Z,23.75
2023-03-20T05:13:20.217Z,23.48
2023-03-20T05:15:47.781Z,24.00
2023-03-20T05:18:14.900Z,23.55
2023-03-20T05:20:42.021Z,22.30
2023-03-20T05:23:09.134Z,26.13
2023-03-20T05:25:36.583Z,23.38
2023-03-20T05:28:03.923Z,23.67
2023-03-20T05:30:31.431Z,22.77
2023-03-20T05:32:58.689Z,22.30
2023-03-20T05:35:25.861Z,23.92
2023-03-20T05:37:53.000Z,19.60
2023-03-20T05:40:24.065Z,22.58
2023-03-20T05:42:52.727Z,23.88
2023-03-20T05:45:20.044Z,21.65
2023-03-20T05:47:47.225Z,21.40
2023-03-20T05:50:14.409Z,21.90
2023-03-20T05:52:41.840Z,24.50
2023-03-20T05:55:09.007Z,25.00
2023-03-20T05:57:36.149Z,25.85
2023-03-20T06:00:03.361Z,21.42
2023-03-20T06:02:30.483Z,19.20
2023-03-20T06:04:57.656Z,21.95
2023-03-20T06:07:24.825Z,19.25
2023-03-20T06:09:52.022Z,21.90
2023-03-20T06:12:19.104Z,23.08
2023-03-20T06:14:46.285Z,23.58
2023-03-20T06:17:13.408Z,21.85
2023-03-20T06:19:40.803Z,20.98
2023-03-20T06:22:08.568Z,21.02
2023-03-20T06:24:36.018Z,23.58
2023-03-20T06:27:03.257Z,18.98
2023-03-20T06:29:30.461Z,22.75
2023-03-20T06:31:57.732Z,21.38
2023-03-20T06:34:24.858Z,19.65
2023-03-20T06:36:51.998Z,23.67
2023-03-20T06:39:19.113Z,20.23
2023-03-20T06:41:46.285Z,23.02
2023-03-20T06:44:13.431Z,25.25
2023-03-20T06:46:40.987Z,19.92
2023-03-20T06:49:08.210Z,20.08
2023-03-20T06:51:35.309Z,25.42
2023-03-20T06:54:02.557Z,20.30
2023-03-20T06:56:29.680Z,21.95
2023-03-20T06:58:56.834Z,23.85
2023-03-20T07:01:24.387Z,21.10
2023-03-20T07:03:51.595Z,23.27
2023-03-20T07:06:19.198Z,23.30
2023-03-20T07:08:46.340Z,20.13
2023-03-20T07:11:14.362Z,17.38
2023-03-20T07:13:41.669Z,18.80
2023-03-20T07:16:09.177Z,21.20
2023-03-20T07:18:37.125Z,18.85
2023-03-20T07:21:06.378Z,18.13
2023-03-20T07:23:34.617Z,18.42
2023-03-20T07:26:01.880Z,19.67
2023-03-20T07:28:29.091Z,18.58
2023-03-20T07:30:56.242Z,21.50
2023-03-20T07:33:23.604Z,21.13
2023-03-20T07:35:57.848Z,17.70
2023-03-20T07:38:25.511Z,18.63
2023-03-20T07:40:54.995Z,18.77
2023-03-20T07:43:22.756Z,19.27
2023-03-20T07:45:50.040Z,19.25
2023-03-20T07:48:17.277Z,18.27
2023-03-20T07:50:44.640Z,17.52
2023-03-20T07:53:11.781Z,18.45
2023-03-20T07:55:39.145Z,16.15
2023-03-20T07:58:08.525Z,15.13
2023-03-20T08:00:36.364Z,14.52
2023-03-20T08:03:04.105Z,16.02
2023-03-20T08:05:31.416Z,17.38
2023-03-20T08:07:58.820Z,15.32
2023-03-20T08:10:26.558Z,16.45
2023-03-20T08:12:53.898Z,17.67
2023-03-20T08:15:21.163Z,18.83
2023-03-20T08:17:48.349Z,17.33
2023-03-20T08:20:16.925Z,17.15
2023-03-20T08:22:49.558Z,16.83
2023-03-20T08:25:17.235Z,14.20
2023-03-20T08:27:45.033Z,15.18
2023-03-20T08:30:13.971Z,13.77
2023-03-20T08:32:41.443Z,16.02
2023-03-20T08:35:19.010Z,13.68
2023-03-20T08:37:53.170Z,19.10
2023-03-20T08:40:20.532Z,17.98
2023-03-20T08:42:47.765Z,18.20
2023-03-20T08:45:14.946Z,13.88
2023-03-20T08:47:42.928Z,13.07
2023-03-20T08:50:10.506Z,14.43
2023-03-20T08:52:37.709Z,13.82
2023-03-20T08:55:05.021Z,13.85
2023-03-20T08:57:41.903Z,14.82
2023-03-20T09:00:10.046Z,14.70
2023-03-20T09:02:38.063Z,15.73
2023-03-20T09:05:06.120Z,15.35
2023-03-20T09:07:33.368Z,16.38
2023-03-20T09:10:00.866Z,11.95
2023-03-20T09:12:28.139Z,10.40
2023-03-20T09:14:55.462Z,15.98
2023-03-20T09:17:22.921Z,14.05
2023-03-20T09:19:50.371Z,11.88
2023-03-20T09:22:20.401Z,17.13
2023-03-20T09:24:47.700Z,14.55
2023-03-20T09:27:14.935Z,13.50
2023-03-20T09:29:42.450Z,11.73
2023-03-20T09:32:16.151Z,15.38
2023-03-20T09:34:43.388Z,14.77
2023-03-20T09:37:10.818Z,14.85
2023-03-20T09:39:38.238Z,12.40
2023-03-20T09:42:28.688Z,14.80
2023-03-20T09:45:10.036Z,9.85
2023-03-20T09:47:41.659Z,14.82
2023-03-20T09:50:14.968Z,11.02
2023-03-20T09:52:46.799Z,11.25
2023-03-20T09:55:16.462Z,12.77
2023-03-20T09:57:46.143Z,14.27
2023-03-20T10:00:16.714Z,10.18
2023-03-20T10:02:54.804Z,9.30
2023-03-20T10:05:25.168Z,13.65
2023-03-20T10:07:54.892Z,10.10
2023-03-20T10:10:27.340Z,11.15
2023-03-20T10:13:08.550Z,11.52
2023-03-20T10:15:47.798Z,9.73
2023-03-20T10:18:15.177Z,13.17
2023-03-20T10:21:13.609Z,13.35
2023-03-20T10:23:43.153Z,11.18
2023-03-20T10:26:12.352Z,11.77
2023-03-20T10:28:51.620Z,9.35
2023-03-20T10:31:18.883Z,9.47
2023-03-20T10:33:49.042Z,9.35
2023-03-20T10:36:25.504Z,11.73
2023-03-20T10:38:55.811Z,11.73
2023-03-20T10:41:25.944Z,11.70
2023-03-20T10:43:53.672Z,11.57
2023-03-20T10:46:34.974Z,12.82
2023-03-20T10:49:02.245Z,15.13
2023-03-20T10:51:41.439Z,14.23
2023-03-20T10:54:15.537Z,12.77
2023-03-20T10:56:48.262Z,16.57
2023-03-20T10:59:18.500Z,14.10
2023-03-20T11:01:45.687Z,21.10
2023-03-20T11:04:12.934Z,15.27
2023-03-20T11:06:56.513Z,13.93
2023-03-20T11:09:29.662Z,16.13
2023-03-20T11:12:03.822Z,16.67
2023-03-20T11:14:40.370Z,16.83
2023-03-20T11:17:07.700Z,17.13
2023-03-20T11:19:36.064Z,18.58
2023-03-20T11:22:10.909Z,16.40
2023-03-20T11:24:41.863Z,18.60
2023-03-20T11:27:26.071Z,18.25
2023-03-20T11:29:53.803Z,18.10
2023-03-20T11:32:24.157Z,18.52
2023-03-20T11:34:52.001Z,18.85
2023-03-20T11:37:28.927Z,18.40
2023-03-20T11:40:01.015Z,17.60
2023-03-20T11:42:30.378Z,18.13
2023-03-20T11:44:58.872Z,16.70
2023-03-20T11:47:27.242Z,19.83
2023-03-20T11:49:58.880Z,23.38
2023-03-20T11:52:28.886Z,19.88
2023-03-20T11:54:58.080Z,19.77
2023-03-20T11:57:36.750Z,21.42
2023-03-20T12:00:09.414Z,21.57
2023-03-20T12:02:37.282Z,21.17
2023-03-20T12:05:18.518Z,19.00
2023-03-20T12:07:47.328Z,18.70
2023-03-20T12:10:15.762Z,21.90
2023-03-20T12:12:55.254Z,18.17
2023-03-20T12:15:25.485Z,19.88
2023-03-20T12:18:11.573Z,19.85
2023-03-20T12:20:51.093Z,22.73
2023-03-20T12:23:25.004Z,22.23
2023-03-20T12:26:04.161Z,17.10
2023-03-20T12:28:35.845Z,21.45
2023-03-20T12:31:18.398Z,20.67
2023-03-20T12:33:54.622Z,19.38
2023-03-20T12:36:29.116Z,23.33
2023-03-20T12:38:56.433Z,24.77
2023-03-20T12:41:26.195Z,17.02
2023-03-20T12:44:06.175Z,21.15
2023-03-20T12:46:42.671Z,23.02
2023-03-20T12:49:23.249Z,19.92
2023-03-20T12:51:50.385Z,20.00
2023-03-20T12:54:32.308Z,22.08
2023-03-20T12:57:02.788Z,23.55
2023-03-20T12:59:54.668Z,24.02
2023-03-20T13:02:25.001Z,23.80
2023-03-20T13:05:04.454Z,20.40
2023-03-20T13:07:41.333Z,23.23
2023-03-20T13:10:21.295Z,19.77
2023-03-20T13:13:07.464Z,21.55
2023-03-20T13:15:43.860Z,26.52
2023-03-20T13:18:10.959Z,18.87
2023-03-20T13:20:58.370Z,21.20
2023-03-20T13:23:30.236Z,21.83
2023-03-20T13:26:08.550Z,20.98
2023-03-20T13:28:42.777Z,19.58
2023-03-20T13:31:25.128Z,22.53
2023-03-20T13:34:10.782Z,23.80
2023-03-20T13:36:50.813Z,25.30
2023-03-20T13:39:40.132Z,22.55
2023-03-20T13:42:12.976Z,22.67
2023-03-20T13:44:40.996Z,20.92
2023-03-20T13:47:12.993Z,22.73
2023-03-20T13:49:44.001Z,23.30
2023-03-20T13:52:19.192Z,21.17
2023-03-20T13:54:59.284Z,23.05
2023-03-20T13:57:46.100Z,20.17
2023-03-20T14:00:32.201Z,20.08
2023-03-20T14:03:11.763Z,19.63
2023-03-20T14:05:40.075Z,21.00
2023-03-20T14:08:28.526Z,20.25
2023-03-20T14:11:14.108Z,22.15
2023-03-20T14:13:44.937Z,19.52
2023-03-20T14:16:15.305Z,25.33
2023-03-20T14:18:43.784Z,24.98
2023-03-20T14:21:15.012Z,22.98
2023-03-20T14:23:49.200Z,25.33
2023-03-20T14:26:24.785Z,22.52
2023-03-20T14:29:01.307Z,26.35
2023-03-20T14:31:34.335Z,25.67
2023-03-20T14:34:13.817Z,24.55
2023-03-20T14:37:00.703Z,23.40
2023-03-20T14:39:30.840Z,21.42
2023-03-20T14:41:58.010Z,20.98
2023-03-20T14:44:35.159Z,27.63
2023-03-20T14:47:20.613Z,20.13
2023-03-20T14:50:04.038Z,22.23
2023-03-20T14:52:41.570Z,27.33
2023-03-20T14:55:21.243Z,23.73
2023-03-20T14:57:56.429Z,25.38
2023-03-20T15:00:25.419Z,26.50
2023-03-20T15:02:54.700Z,22.80
2023-03-20T15:05:29.324Z,22.17
2023-03-20T15:07:58.224Z,22.98
2023-03-20T15:10:28.592Z,24.73
2023-03-20T15:12:58.062Z,24.40
2023-03-20T15:15:27.733Z,23.45
2023-03-20T15:17:55.304Z,23.48
2023-03-20T15:20:24.110Z,23.00
2023-03-20T15:22:52.507Z,25.52
2023-03-20T15:25:20.507Z,26.38
2023-03-20T15:27:47.850Z,22.67
2023-03-20T15:30:16.187Z,23.83
2023-03-20T15:32:43.792Z,29.10
2023-03-20T15:35:13.182Z,27.40
2023-03-20T15:37:40.447Z,23.83
2023-03-20T15:40:11.690Z,27.95
2023-03-20T15:42:38.909Z,26.27
2023-03-20T15:45:22.327Z,26.27
2023-03-20T15:47:49.593Z,23.80
2023-03-20T15:50:17.322Z,25.55
2023-03-20T15:52:53.163Z,29.02
2023-03-20T15:55:21.419Z,29.00
2023-03-20T15:57:50.551Z,30.83
2023-03-20T16:00:25.325Z,26.50
2023-03-20T16:02:52.804Z,28.15
2023-03-20T16:05:21.393Z,26.60
2023-03-20T16:07:48.610Z,29.77
2023-03-20T16:10:36.518Z,26.98
2023-03-20T16:13:05.117Z,28.95
2023-03-20T16:15:33.807Z,29.35
2023-03-20T16:18:02.429Z,27.80
2023-03-20T16:20:34.004Z,27.70
2023-03-20T16:23:03.536Z,30.98
2023-03-20T16:25:30.830Z,28.90
2023-03-20T16:27:59.388Z,30.38
2023-03-20T16:30:28.059Z,30.38
2023-03-20T16:32:59.145Z,29.63
2023-03-20T16:35:38.672Z,33.78
2023-03-20T16:38:15.820Z,30.40
2023-03-20T16:40:43.081Z,36.22
2023-03-20T16:43:14.774Z,28.85
2023-03-20T16:45:44.306Z,31.92
2023-03-20T16:48:11.523Z,31.25
2023-03-20T16:50:39.808Z,28.85
2023-03-20T16:53:16.097Z,29.15
2023-03-20T16:55:45.041Z,28.33
2023-03-20T16:58:15.898Z,27.83
2023-03-20T17:00:45.115Z,28.73
2023-03-20T17:03:17.424Z,30.35
2023-03-20T17:06:07.265Z,32.67
2023-03-20T17:14:51.554Z,24.15
2023-03-20T17:17:21.078Z,28.80
2023-03-20T17:19:50.082Z,30.80
2023-03-20T17:22:19.004Z,31.57
2023-03-20T17:24:48.989Z,26.23
2023-03-20T17:27:16.993Z,30.45
2023-03-20T17:29:44.824Z,30.40
2023-03-20T17:32:13.080Z,25.95
2023-03-20T17:34:40.672Z,28.70
2023-03-20T17:37:08.104Z,32.00
2023-03-20T17:39:35.242Z,29.33
2023-03-20T17:42:02.369Z,28.17
2023-03-20T17:44:29.525Z,26.88
2023-03-20T17:46:59.090Z,24.83
2023-03-20T17:49:27.543Z,33.17
2023-03-20T17:51:55.284Z,27.20
2023-03-20T17:54:22.385Z,29.05
2023-03-20T17:56:49.526Z,29.63
2023-03-20T17:59:16.734Z,27.73
2023-03-20T18:01:44.931Z,32.50
2023-03-20T18:04:12.142Z,33.00
2023-03-20T18:06:39.357Z,32.22
2023-03-20T18:09:06.579Z,40.03
2023-03-20T18:11:33.749Z,30.42
2023-03-20T18:14:02.150Z,29.70
2023-03-20T18:16:29.376Z,34.40
2023-03-20T18:18:57.038Z,34.72
2023-03-20T18:21:24.162Z,32.17
2023-03-20T18:23:51.309Z,34.30
2023-03-20T18:26:20.537Z,26.38
2023-03-20T18:28:48.137Z,33.00
2023-03-20T18:31:18.961Z,33.58
2023-03-20T18:33:47.213Z,34.85
2023-03-20T18:36:15.982Z,33.63
2023-03-20T18:38:43.346Z,33.53
2023-03-20T18:41:11.723Z,33.03
2023-03-20T18:43:39.729Z,29.38
2023-03-20T18:46:07.258Z,36.53
2023-03-20T18:48:34.565Z,34.00
2023-03-20T18:51:02.571Z,35.65
2023-03-20T18:53:30.619Z,37.22
2023-03-20T18:55:57.822Z,33.53
2023-03-20T18:58:26.140Z,34.80
2023-03-20T19:00:54.251Z,30.55
2023-03-20T19:03:23.814Z,35.22
2023-03-20T19:05:52.181Z,33.22
2023-03-20T19:08:19.703Z,30.80
2023-03-20T19:10:47.151Z,30.35
2023-03-20T19:13:15.769Z,31.43
2023-03-20T19:15:43.227Z,31.30
2023-03-20T19:18:26.827Z,29.88
2023-03-20T19:20:55.671Z,30.08
2023-03-20T19:23:24.068Z,33.15
2023-03-20T19:25:52.563Z,32.55
2023-03-20T19:28:21.606Z,30.42
2023-03-20T19:30:49.365Z,28.42
2023-03-20T19:33:16.639Z,28.92
2023-03-20T19:36:11.219Z,28.67
2023-03-20T19:38:31.802Z,30.20
2023-03-20T19:40:59.836Z,31.38
2023-03-20T19:43:28.994Z,34.00
2023-03-20T19:45:58.816Z,32.63
2023-03-20T19:48:27.741Z,28.20
2023-03-20T19:50:56.183Z,28.80
2023-03-20T19:53:26.615Z,23.95
2023-03-20T19:55:54.207Z,25.33
2023-03-20T19:58:21.739Z,25.10
2023-03-20T20:01:00.275Z,24.17
2023-03-20T20:03:27.784Z,21.90
2023-03-20T20:05:55.121Z,24.08
2023-03-20T20:08:39.008Z,24.65
2023-03-20T20:11:11.881Z,23.38
2023-03-20T20:13:53.454Z,20.08
2023-03-20T20:16:26.556Z,21.00
2023-03-20T20:18:53.718Z,19.25
2023-03-20T20:24:07.966Z,21.70
2023-03-20T20:26:40.596Z,24.23
2023-03-20T20:29:14.884Z,21.50
2023-03-20T20:31:42.151Z,21.02
2023-03-20T20:35:07.300Z,26.60
2023-03-20T20:39:45.396Z,22.05
2023-03-20T20:42:12.905Z,22.73
2023-03-20T20:44:40.773Z,22.58
2023-03-20T20:47:08.188Z,23.85
2023-03-20T20:49:35.746Z,25.33
2023-03-20T20:52:02.934Z,23.05
2023-03-20T20:54:30.201Z,21.48
2023-03-20T20:56:57.494Z,24.27
2023-03-20T20:59:24.658Z,21.88
2023-03-20T21:01:53.591Z,19.20
2023-03-20T21:04:21.265Z,21.67
2023-03-20T21:07:08.817Z,20.77
2023-03-20T21:09:35.754Z,23.45
2023-03-20T21:12:03.179Z,23.85
2023-03-20T21:14:30.493Z,25.52
2023-03-20T21:17:00.853Z,20.48
2023-03-20T21:19:33.821Z,22.08
2023-03-20T21:22:01.142Z,21.25
2023-03-20T21:24:34.066Z,19.42
2023-03-20T21:27:06.769Z,23.42
2023-03-20T21:29:34.143Z,18.40
2023-03-20T21:32:01.417Z,23.88
2023-03-20T21:34:31.737Z,22.52
2023-03-20T21:37:00.180Z,19.38
2023-03-20T21:39:30.383Z,19.58
2023-03-20T21:41:57.559Z,20.42
2023-03-20T21:45:08.278Z,24.50
2023-03-20T21:48:04.246Z,22.33
2023-03-20T21:50:42.159Z,22.50
2023-03-20T21:53:20.200Z,24.63
2023-03-20T21:56:29.377Z,22.85
2023-03-20T22:10:18.529Z,20.23
2023-03-20T22:13:03.605Z,21.13
2023-03-20T22:15:39.421Z,20.02
2023-03-20T22:18:31.125Z,21.30
2023-03-20T22:24:20.409Z,24.02
2023-03-20T22:38:08.408Z,20.63
2023-03-20T22:41:54.938Z,21.00
2023-03-20T22:43:59.900Z,24.65
2023-03-20T22:46:03.419Z,22.40
2023-03-20T22:48:34.956Z,19.95
2023-03-20T22:51:02.077Z,21.08
2023-03-20T22:53:30.943Z,20.50
2023-03-20T22:55:58.041Z,23.00
2023-03-20T22:58:25.466Z,20.98
2023-03-20T23:00:54.936Z,19.90
2023-03-20T23:03:38.165Z,19.98
2023-03-20T23:06:15.979Z,20.65
2023-03-20T23:08:50.864Z,20.23
2023-03-20T23:11:22.284Z,22.20
2023-03-20T23:13:49.736Z,23.20
2023-03-20T23:16:16.857Z,24.20
2023-03-20T23:18:44.402Z,24.80
2023-03-20T23:21:12.005Z,23.85
2023-03-20T23:23:39.428Z,19.83
2023-03-20T23:26:08.181Z,24.85
2023-03-20T23:28:36.640Z,21.85
2023-03-20T23:31:11.212Z,22.50
2023-03-20T23:33:39.596Z,25.30
2023-03-20T23:36:18.664Z,25.40
2023-03-20T23:38:48.774Z,23.55
2023-03-20T23:41:16.161Z,24.88
2023-03-20T23:43:43.477Z,26.20
2023-03-20T23:46:10.853Z,25.25
2023-03-20T23:48:39.156Z,24.75
2023-03-20T23:51:06.608Z,24.48
2023-03-20T23:53:33.814Z,22.98
2023-03-20T23:56:00.977Z,25.77
2023-03-20T23:58:28.390Z,22.58
